Terminal Aerodrome Forecast
Issued by NWS

Home | Current Version | Previous Version | Text Only | Print | Product List | Glossary On
Versions: 1 2 3 4 5 6 7 8 9 10 11 12 13 14 15 16 17 18 19 20 21 22 23 24 25 26 27 28 29 30 31 32 33
000
FTUS42 KEYW 300500
TAFMTH
TAF
KMTH 300521Z 3006/3106 28003KT P6SM FEW029 SCT250
     FM300900 26003KT P6SM SCT029 BKN250=

USA.gov is the U.S. government's official web portal to all federal, state and local government web resources and services.